sensor_id;sensor_type;location;lat;lon;timestamp;P1;durP1;ratioP1;P2;durP2;ratioP2
44989;SDS011;30723;51.206;3.326;2022-07-17T00:02:17;5.70;;;3.15;;
44989;SDS011;30723;51.206;3.326;2022-07-17T00:04:43;3.35;;;2.88;;
44989;SDS011;30723;51.206;3.326;2022-07-17T00:07:10;9.23;;;2.97;;
44989;SDS011;30723;51.206;3.326;2022-07-17T00:09:37;6.40;;;2.35;;
44989;SDS011;30723;51.206;3.326;2022-07-17T00:12:03;12.30;;;2.55;;
44989;SDS011;30723;51.206;3.326;2022-07-17T00:14:31;3.30;;;2.42;;
44989;SDS011;30723;51.206;3.326;2022-07-17T00:16:58;8.02;;;2.55;;
44989;SDS011;30723;51.206;3.326;2022-07-17T00:19:25;7.40;;;2.42;;
44989;SDS011;30723;51.206;3.326;2022-07-17T00:21:52;9.85;;;2.67;;
44989;SDS011;30723;51.206;3.326;2022-07-17T00:24:18;8.90;;;2.83;;
44989;SDS011;30723;51.206;3.326;2022-07-17T00:26:48;7.80;;;2.72;;
44989;SDS011;30723;51.206;3.326;2022-07-17T00:29:31;4.50;;;2.70;;
44989;SDS011;30723;51.206;3.326;2022-07-17T00:31:57;7.15;;;2.72;;
44989;SDS011;30723;51.206;3.326;2022-07-17T00:34:24;6.22;;;2.63;;
44989;SDS011;30723;51.206;3.326;2022-07-17T00:36:50;5.93;;;2.38;;
44989;SDS011;30723;51.206;3.326;2022-07-17T00:39:16;5.68;;;2.38;;
44989;SDS011;30723;51.206;3.326;2022-07-17T00:41:43;6.05;;;2.63;;
44989;SDS011;30723;51.206;3.326;2022-07-17T00:44:10;5.53;;;2.50;;
44989;SDS011;30723;51.206;3.326;2022-07-17T00:46:37;5.88;;;2.47;;
44989;SDS011;30723;51.206;3.326;2022-07-17T00:49:06;8.13;;;2.83;;
44989;SDS011;30723;51.206;3.326;2022-07-17T00:51:33;4.35;;;2.50;;
44989;SDS011;30723;51.206;3.326;2022-07-17T00:54:01;7.68;;;2.75;;
44989;SDS011;30723;51.206;3.326;2022-07-17T00:56:28;4.40;;;2.65;;
44989;SDS011;30723;51.206;3.326;2022-07-17T00:58:54;5.88;;;2.83;;
44989;SDS011;30723;51.206;3.326;2022-07-17T01:01:20;5.80;;;2.47;;
44989;SDS011;30723;51.206;3.326;2022-07-17T01:03:47;3.00;;;2.60;;
44989;SDS011;30723;51.206;3.326;2022-07-17T01:06:13;6.18;;;2.70;;
44989;SDS011;30723;51.206;3.326;2022-07-17T01:08:40;4.97;;;3.10;;
44989;SDS011;30723;51.206;3.326;2022-07-17T01:11:07;4.65;;;2.70;;
44989;SDS011;30723;51.206;3.326;2022-07-17T01:13:35;6.80;;;2.90;;
44989;SDS011;30723;51.206;3.326;2022-07-17T01:16:02;5.88;;;2.47;;
44989;SDS011;30723;51.206;3.326;2022-07-17T01:18:28;5.85;;;2.50;;
44989;SDS011;30723;51.206;3.326;2022-07-17T01:20:55;4.95;;;2.47;;
44989;SDS011;30723;51.206;3.326;2022-07-17T01:23:28;6.65;;;2.60;;
44989;SDS011;30723;51.206;3.326;2022-07-17T01:25:54;4.90;;;2.38;;
44989;SDS011;30723;51.206;3.326;2022-07-17T01:28:21;4.50;;;2.42;;
44989;SDS011;30723;51.206;3.326;2022-07-17T01:30:48;6.75;;;2.85;;
44989;SDS011;30723;51.206;3.326;2022-07-17T01:33:16;3.95;;;2.38;;
44989;SDS011;30723;51.206;3.326;2022-07-17T01:35:43;5.35;;;2.58;;
44989;SDS011;30723;51.206;3.326;2022-07-17T01:38:10;3.90;;;2.20;;
44989;SDS011;30723;51.206;3.326;2022-07-17T01:40:37;3.58;;;2.25;;
44989;SDS011;30723;51.206;3.326;2022-07-17T01:43:03;5.93;;;2.30;;
44989;SDS011;30723;51.206;3.326;2022-07-17T01:45:30;4.78;;;2.58;;
44989;SDS011;30723;51.206;3.326;2022-07-17T01:47:57;4.35;;;2.42;;
44989;SDS011;30723;51.206;3.326;2022-07-17T01:50:24;4.70;;;2.60;;
44989;SDS011;30723;51.206;3.326;2022-07-17T01:52:50;7.72;;;2.78;;
44989;SDS011;30723;51.206;3.326;2022-07-17T01:55:17;6.45;;;2.50;;
44989;SDS011;30723;51.206;3.326;2022-07-17T01:57:44;6.95;;;2.42;;
44989;SDS011;30723;51.206;3.326;2022-07-17T02:00:12;7.18;;;2.72;;
44989;SDS011;30723;51.206;3.326;2022-07-17T02:02:41;7.47;;;2.65;;
44989;SDS011;30723;51.206;3.326;2022-07-17T02:05:09;6.85;;;2.67;;
44989;SDS011;30723;51.206;3.326;2022-07-17T02:07:36;4.05;;;2.35;;
44989;SDS011;30723;51.206;3.326;2022-07-17T02:10:05;7.50;;;2.47;;
44989;SDS011;30723;51.206;3.326;2022-07-17T02:12:34;5.25;;;2.83;;
44989;SDS011;30723;51.206;3.326;2022-07-17T02:15:02;5.18;;;2.40;;
44989;SDS011;30723;51.206;3.326;2022-07-17T02:17:29;5.70;;;2.38;;
44989;SDS011;30723;51.206;3.326;2022-07-17T02:19:55;6.55;;;2.50;;
44989;SDS011;30723;51.206;3.326;2022-07-17T02:22:21;6.82;;;2.50;;
44989;SDS011;30723;51.206;3.326;2022-07-17T02:24:48;4.18;;;2.35;;
44989;SDS011;30723;51.206;3.326;2022-07-17T02:27:14;6.30;;;2.80;;
44989;SDS011;30723;51.206;3.326;2022-07-17T02:29:41;4.88;;;2.60;;
44989;SDS011;30723;51.206;3.326;2022-07-17T02:32:07;9.88;;;3.83;;
44989;SDS011;30723;51.206;3.326;2022-07-17T02:34:34;5.55;;;2.45;;
44989;SDS011;30723;51.206;3.326;2022-07-17T02:36:59;5.10;;;2.20;;
44989;SDS011;30723;51.206;3.326;2022-07-17T02:39:26;6.60;;;2.80;;
44989;SDS011;30723;51.206;3.326;2022-07-17T02:41:53;4.40;;;2.45;;
44989;SDS011;30723;51.206;3.326;2022-07-17T02:44:19;6.55;;;2.70;;
44989;SDS011;30723;51.206;3.326;2022-07-17T02:46:46;4.75;;;3.10;;
44989;SDS011;30723;51.206;3.326;2022-07-17T02:49:12;8.55;;;2.47;;
44989;SDS011;30723;51.206;3.326;2022-07-17T02:51:39;3.47;;;2.53;;
44989;SDS011;30723;51.206;3.326;2022-07-17T02:54:06;10.65;;;3.25;;
44989;SDS011;30723;51.206;3.326;2022-07-17T02:56:33;4.10;;;2.60;;
44989;SDS011;30723;51.206;3.326;2022-07-17T02:58:59;5.95;;;2.92;;
44989;SDS011;30723;51.206;3.326;2022-07-17T03:01:25;3.30;;;2.60;;
44989;SDS011;30723;51.206;3.326;2022-07-17T03:03:52;5.82;;;2.92;;
44989;SDS011;30723;51.206;3.326;2022-07-17T03:06:18;8.90;;;3.17;;
44989;SDS011;30723;51.206;3.326;2022-07-17T03:08:45;7.75;;;3.33;;
44989;SDS011;30723;51.206;3.326;2022-07-17T03:11:10;6.57;;;3.20;;
44989;SDS011;30723;51.206;3.326;2022-07-17T03:13:37;6.18;;;3.38;;
44989;SDS011;30723;51.206;3.326;2022-07-17T03:16:03;5.43;;;3.22;;
44989;SDS011;30723;51.206;3.326;2022-07-17T03:18:30;8.57;;;3.70;;
44989;SDS011;30723;51.206;3.326;2022-07-17T03:20:57;5.93;;;3.28;;
44989;SDS011;30723;51.206;3.326;2022-07-17T03:23:23;5.90;;;3.25;;
44989;SDS011;30723;51.206;3.326;2022-07-17T03:25:49;9.65;;;3.85;;
44989;SDS011;30723;51.206;3.326;2022-07-17T03:28:15;5.50;;;3.53;;
44989;SDS011;30723;51.206;3.326;2022-07-17T03:30:42;7.65;;;3.42;;
44989;SDS011;30723;51.206;3.326;2022-07-17T03:33:09;6.43;;;3.72;;
44989;SDS011;30723;51.206;3.326;2022-07-17T03:35:36;8.95;;;3.70;;
44989;SDS011;30723;51.206;3.326;2022-07-17T03:38:03;13.70;;;3.53;;
44989;SDS011;30723;51.206;3.326;2022-07-17T03:40:30;5.93;;;3.72;;
44989;SDS011;30723;51.206;3.326;2022-07-17T03:42:56;7.38;;;3.88;;
44989;SDS011;30723;51.206;3.326;2022-07-17T03:45:23;5.43;;;3.83;;
44989;SDS011;30723;51.206;3.326;2022-07-17T03:47:49;7.65;;;3.70;;
44989;SDS011;30723;51.206;3.326;2022-07-17T03:50:16;6.72;;;3.75;;
44989;SDS011;30723;51.206;3.326;2022-07-17T03:52:43;7.40;;;4.78;;
44989;SDS011;30723;51.206;3.326;2022-07-17T03:55:09;7.53;;;4.28;;
44989;SDS011;30723;51.206;3.326;2022-07-17T03:57:36;8.75;;;3.83;;
44989;SDS011;30723;51.206;3.326;2022-07-17T04:00:03;11.13;;;4.00;;
44989;SDS011;30723;51.206;3.326;2022-07-17T04:02:29;10.43;;;3.88;;
44989;SDS011;30723;51.206;3.326;2022-07-17T04:04:56;7.38;;;4.00;;
44989;SDS011;30723;51.206;3.326;2022-07-17T04:07:22;8.35;;;3.75;;
44989;SDS011;30723;51.206;3.326;2022-07-17T04:09:52;4.00;;;3.50;;
44989;SDS011;30723;51.206;3.326;2022-07-17T04:12:23;11.93;;;3.92;;
44989;SDS011;30723;51.206;3.326;2022-07-17T04:14:51;9.85;;;4.15;;
44989;SDS011;30723;51.206;3.326;2022-07-17T04:17:17;8.13;;;4.05;;
44989;SDS011;30723;51.206;3.326;2022-07-17T04:19:44;11.95;;;4.22;;
44989;SDS011;30723;51.206;3.326;2022-07-17T04:22:12;7.47;;;4.43;;
44989;SDS011;30723;51.206;3.326;2022-07-17T04:24:38;6.22;;;3.90;;
44989;SDS011;30723;51.206;3.326;2022-07-17T04:27:05;5.75;;;4.22;;
44989;SDS011;30723;51.206;3.326;2022-07-17T04:29:39;6.50;;;3.67;;
44989;SDS011;30723;51.206;3.326;2022-07-17T04:32:06;5.40;;;3.80;;
44989;SDS011;30723;51.206;3.326;2022-07-17T04:34:32;7.00;;;3.58;;
44989;SDS011;30723;51.206;3.326;2022-07-17T04:36:59;8.38;;;3.60;;
44989;SDS011;30723;51.206;3.326;2022-07-17T04:39:26;7.07;;;3.50;;
44989;SDS011;30723;51.206;3.326;2022-07-17T04:41:53;7.60;;;4.03;;
44989;SDS011;30723;51.206;3.326;2022-07-17T04:44:21;4.97;;;3.28;;
44989;SDS011;30723;51.206;3.326;2022-07-17T04:46:47;7.55;;;3.60;;
44989;SDS011;30723;51.206;3.326;2022-07-17T04:49:14;5.07;;;3.53;;
44989;SDS011;30723;51.206;3.326;2022-07-17T04:51:40;5.00;;;3.80;;
44989;SDS011;30723;51.206;3.326;2022-07-17T04:54:07;5.57;;;3.42;;
44989;SDS011;30723;51.206;3.326;2022-07-17T04:56:34;7.57;;;3.72;;
44989;SDS011;30723;51.206;3.326;2022-07-17T04:59:00;13.48;;;3.75;;
44989;SDS011;30723;51.206;3.326;2022-07-17T05:01:29;8.00;;;4.35;;
44989;SDS011;30723;51.206;3.326;2022-07-17T05:03:55;5.05;;;3.75;;
44989;SDS011;30723;51.206;3.326;2022-07-17T05:06:22;15.07;;;4.70;;
44989;SDS011;30723;51.206;3.326;2022-07-17T05:08:48;6.47;;;4.10;;
44989;SDS011;30723;51.206;3.326;2022-07-17T05:11:15;8.50;;;4.50;;
44989;SDS011;30723;51.206;3.326;2022-07-17T05:13:42;8.63;;;4.32;;
44989;SDS011;30723;51.206;3.326;2022-07-17T05:16:09;9.27;;;4.93;;
44989;SDS011;30723;51.206;3.326;2022-07-17T05:18:35;6.28;;;4.70;;
44989;SDS011;30723;51.206;3.326;2022-07-17T05:21:02;9.15;;;4.50;;
44989;SDS011;30723;51.206;3.326;2022-07-17T05:23:29;7.65;;;5.20;;
44989;SDS011;30723;51.206;3.326;2022-07-17T05:25:56;7.35;;;4.53;;
44989;SDS011;30723;51.206;3.326;2022-07-17T05:28:23;5.97;;;4.45;;
44989;SDS011;30723;51.206;3.326;2022-07-17T05:30:49;7.20;;;4.70;;
44989;SDS011;30723;51.206;3.326;2022-07-17T05:33:15;10.25;;;4.90;;
44989;SDS011;30723;51.206;3.326;2022-07-17T05:35:42;6.97;;;4.30;;
44989;SDS011;30723;51.206;3.326;2022-07-17T05:38:09;17.45;;;4.90;;
44989;SDS011;30723;51.206;3.326;2022-07-17T05:40:36;16.40;;;4.50;;
44989;SDS011;30723;51.206;3.326;2022-07-17T05:43:02;11.77;;;4.55;;
44989;SDS011;30723;51.206;3.326;2022-07-17T05:45:28;10.88;;;4.20;;
44989;SDS011;30723;51.206;3.326;2022-07-17T05:47:54;15.63;;;4.60;;
44989;SDS011;30723;51.206;3.326;2022-07-17T05:50:20;10.65;;;4.40;;
44989;SDS011;30723;51.206;3.326;2022-07-17T05:52:45;7.50;;;3.95;;
44989;SDS011;30723;51.206;3.326;2022-07-17T05:55:12;11.38;;;4.32;;
44989;SDS011;30723;51.206;3.326;2022-07-17T05:57:39;13.70;;;4.03;;
44989;SDS011;30723;51.206;3.326;2022-07-17T06:00:06;10.50;;;4.25;;
44989;SDS011;30723;51.206;3.326;2022-07-17T06:02:36;10.73;;;3.88;;
44989;SDS011;30723;51.206;3.326;2022-07-17T06:05:03;11.55;;;4.15;;
44989;SDS011;30723;51.206;3.326;2022-07-17T06:07:31;14.13;;;4.00;;
44989;SDS011;30723;51.206;3.326;2022-07-17T06:09:57;6.22;;;3.88;;
44989;SDS011;30723;51.206;3.326;2022-07-17T06:12:23;8.90;;;3.50;;
44989;SDS011;30723;51.206;3.326;2022-07-17T06:14:49;7.68;;;3.47;;
44989;SDS011;30723;51.206;3.326;2022-07-17T06:17:15;9.65;;;3.88;;
44989;SDS011;30723;51.206;3.326;2022-07-17T06:19:42;10.73;;;3.58;;
44989;SDS011;30723;51.206;3.326;2022-07-17T06:22:08;8.25;;;3.70;;
44989;SDS011;30723;51.206;3.326;2022-07-17T06:24:36;6.97;;;3.50;;
44989;SDS011;30723;51.206;3.326;2022-07-17T06:27:01;6.72;;;3.33;;
44989;SDS011;30723;51.206;3.326;2022-07-17T06:29:28;10.00;;;3.67;;
44989;SDS011;30723;51.206;3.326;2022-07-17T06:31:55;6.15;;;3.58;;
44989;SDS011;30723;51.206;3.326;2022-07-17T06:34:21;9.57;;;3.72;;
44989;SDS011;30723;51.206;3.326;2022-07-17T06:36:46;12.88;;;3.40;;
44989;SDS011;30723;51.206;3.326;2022-07-17T06:39:13;9.35;;;3.42;;
44989;SDS011;30723;51.206;3.326;2022-07-17T06:41:40;9.35;;;3.20;;
44989;SDS011;30723;51.206;3.326;2022-07-17T06:44:07;8.13;;;3.05;;
44989;SDS011;30723;51.206;3.326;2022-07-17T06:46:33;8.15;;;2.95;;
44989;SDS011;30723;51.206;3.326;2022-07-17T06:49:00;10.40;;;3.00;;
44989;SDS011;30723;51.206;3.326;2022-07-17T06:51:25;8.18;;;3.25;;
44989;SDS011;30723;51.206;3.326;2022-07-17T06:53:51;7.60;;;3.10;;
44989;SDS011;30723;51.206;3.326;2022-07-17T06:56:17;6.47;;;2.75;;
44989;SDS011;30723;51.206;3.326;2022-07-17T06:58:43;6.38;;;2.72;;
44989;SDS011;30723;51.206;3.326;2022-07-17T07:01:10;6.32;;;2.85;;
44989;SDS011;30723;51.206;3.326;2022-07-17T07:03:37;10.38;;;3.17;;
44989;SDS011;30723;51.206;3.326;2022-07-17T07:06:03;4.55;;;2.88;;
44989;SDS011;30723;51.206;3.326;2022-07-17T07:08:30;6.65;;;2.60;;
44989;SDS011;30723;51.206;3.326;2022-07-17T07:10:57;7.35;;;2.53;;
44989;SDS011;30723;51.206;3.326;2022-07-17T07:13:24;10.68;;;2.75;;
44989;SDS011;30723;51.206;3.326;2022-07-17T07:15:51;9.38;;;2.92;;
44989;SDS011;30723;51.206;3.326;2022-07-17T07:18:16;9.00;;;2.40;;
44989;SDS011;30723;51.206;3.326;2022-07-17T07:20:43;7.45;;;2.30;;
44989;SDS011;30723;51.206;3.326;2022-07-17T07:23:10;5.65;;;2.28;;
44989;SDS011;30723;51.206;3.326;2022-07-17T07:25:36;7.88;;;2.30;;
44989;SDS011;30723;51.206;3.326;2022-07-17T07:28:02;6.45;;;2.38;;
44989;SDS011;30723;51.206;3.326;2022-07-17T07:30:29;5.72;;;1.90;;
44989;SDS011;30723;51.206;3.326;2022-07-17T07:32:56;6.70;;;2.63;;
44989;SDS011;30723;51.206;3.326;2022-07-17T07:35:23;6.75;;;2.45;;
44989;SDS011;30723;51.206;3.326;2022-07-17T07:37:49;7.45;;;2.25;;
44989;SDS011;30723;51.206;3.326;2022-07-17T07:40:15;8.45;;;1.95;;
44989;SDS011;30723;51.206;3.326;2022-07-17T07:42:42;3.85;;;1.70;;
44989;SDS011;30723;51.206;3.326;2022-07-17T07:45:09;7.13;;;1.80;;
44989;SDS011;30723;51.206;3.326;2022-07-17T07:47:40;7.07;;;2.03;;
44989;SDS011;30723;51.206;3.326;2022-07-17T07:50:09;6.05;;;1.70;;
44989;SDS011;30723;51.206;3.326;2022-07-17T07:52:38;4.10;;;1.50;;
44989;SDS011;30723;51.206;3.326;2022-07-17T07:57:35;5.85;;;1.63;;
44989;SDS011;30723;51.206;3.326;2022-07-17T08:00:03;5.00;;;1.75;;
44989;SDS011;30723;51.206;3.326;2022-07-17T08:04:59;3.95;;;1.67;;
44989;SDS011;30723;51.206;3.326;2022-07-17T08:07:26;7.38;;;1.75;;
44989;SDS011;30723;51.206;3.326;2022-07-17T08:09:53;13.15;;;3.03;;
44989;SDS011;30723;51.206;3.326;2022-07-17T08:12:20;6.70;;;2.50;;
44989;SDS011;30723;51.206;3.326;2022-07-17T08:14:46;7.55;;;1.73;;
44989;SDS011;30723;51.206;3.326;2022-07-17T08:17:14;4.63;;;1.77;;
44989;SDS011;30723;51.206;3.326;2022-07-17T08:19:40;4.82;;;1.65;;
44989;SDS011;30723;51.206;3.326;2022-07-17T08:22:07;7.43;;;1.73;;
44989;SDS011;30723;51.206;3.326;2022-07-17T08:24:34;6.93;;;1.70;;
44989;SDS011;30723;51.206;3.326;2022-07-17T08:27:00;5.07;;;1.48;;
44989;SDS011;30723;51.206;3.326;2022-07-17T08:29:27;11.20;;;1.63;;
44989;SDS011;30723;51.206;3.326;2022-07-17T08:31:53;4.40;;;1.83;;
44989;SDS011;30723;51.206;3.326;2022-07-17T08:34:20;7.82;;;2.10;;
44989;SDS011;30723;51.206;3.326;2022-07-17T08:36:46;6.70;;;1.60;;
44989;SDS011;30723;51.206;3.326;2022-07-17T08:39:12;5.82;;;1.88;;
44989;SDS011;30723;51.206;3.326;2022-07-17T08:41:38;9.40;;;1.80;;
44989;SDS011;30723;51.206;3.326;2022-07-17T08:44:06;6.97;;;2.08;;
44989;SDS011;30723;51.206;3.326;2022-07-17T08:46:36;6.45;;;1.80;;
44989;SDS011;30723;51.206;3.326;2022-07-17T08:49:05;6.32;;;1.83;;
44989;SDS011;30723;51.206;3.326;2022-07-17T08:51:33;5.45;;;1.75;;
44989;SDS011;30723;51.206;3.326;2022-07-17T08:54:00;5.15;;;1.92;;
44989;SDS011;30723;51.206;3.326;2022-07-17T08:56:26;7.05;;;2.28;;
44989;SDS011;30723;51.206;3.326;2022-07-17T08:58:53;4.07;;;1.45;;
44989;SDS011;30723;51.206;3.326;2022-07-17T09:01:23;7.20;;;2.20;;
44989;SDS011;30723;51.206;3.326;2022-07-17T09:03:57;7.78;;;1.95;;
44989;SDS011;30723;51.206;3.326;2022-07-17T09:06:38;8.95;;;2.22;;
44989;SDS011;30723;51.206;3.326;2022-07-17T09:09:06;5.15;;;1.65;;
44989;SDS011;30723;51.206;3.326;2022-07-17T09:11:43;9.57;;;2.38;;
44989;SDS011;30723;51.206;3.326;2022-07-17T09:14:17;5.68;;;1.70;;
44989;SDS011;30723;51.206;3.326;2022-07-17T09:16:51;7.22;;;1.45;;
44989;SDS011;30723;51.206;3.326;2022-07-17T09:19:27;2.55;;;1.50;;
44989;SDS011;30723;51.206;3.326;2022-07-17T09:22:17;5.13;;;1.70;;
44989;SDS011;30723;51.206;3.326;2022-07-17T09:24:48;5.78;;;1.80;;
44989;SDS011;30723;51.206;3.326;2022-07-17T09:30:03;7.38;;;2.13;;
44989;SDS011;30723;51.206;3.326;2022-07-17T09:32:35;6.80;;;1.90;;
44989;SDS011;30723;51.206;3.326;2022-07-17T09:35:04;8.60;;;1.95;;
44989;SDS011;30723;51.206;3.326;2022-07-17T09:37:31;9.20;;;1.90;;
44989;SDS011;30723;51.206;3.326;2022-07-17T09:39:59;6.40;;;1.70;;
44989;SDS011;30723;51.206;3.326;2022-07-17T09:44:59;7.13;;;1.83;;
44989;SDS011;30723;51.206;3.326;2022-07-17T09:47:30;7.22;;;1.83;;
44989;SDS011;30723;51.206;3.326;2022-07-17T09:49:57;7.97;;;1.80;;
44989;SDS011;30723;51.206;3.326;2022-07-17T09:52:25;4.35;;;1.48;;
44989;SDS011;30723;51.206;3.326;2022-07-17T09:54:55;5.13;;;1.73;;
44989;SDS011;30723;51.206;3.326;2022-07-17T09:57:27;3.88;;;1.85;;
44989;SDS011;30723;51.206;3.326;2022-07-17T09:59:55;4.15;;;1.80;;
44989;SDS011;30723;51.206;3.326;2022-07-17T10:02:23;6.85;;;2.10;;
44989;SDS011;30723;51.206;3.326;2022-07-17T10:04:52;4.47;;;1.65;;
44989;SDS011;30723;51.206;3.326;2022-07-17T10:07:19;3.67;;;1.88;;
44989;SDS011;30723;51.206;3.326;2022-07-17T10:09:47;5.40;;;2.15;;
44989;SDS011;30723;51.206;3.326;2022-07-17T10:12:13;5.90;;;1.65;;
44989;SDS011;30723;51.206;3.326;2022-07-17T10:14:41;3.72;;;1.60;;
44989;SDS011;30723;51.206;3.326;2022-07-17T10:19:46;6.00;;;1.77;;
44989;SDS011;30723;51.206;3.326;2022-07-17T10:22:21;5.65;;;2.00;;
44989;SDS011;30723;51.206;3.326;2022-07-17T10:24:52;5.18;;;1.60;;
44989;SDS011;30723;51.206;3.326;2022-07-17T10:27:30;9.60;;;2.25;;
44989;SDS011;30723;51.206;3.326;2022-07-17T10:32:25;5.43;;;2.17;;
44989;SDS011;30723;51.206;3.326;2022-07-17T10:38:10;7.15;;;2.22;;
44989;SDS011;30723;51.206;3.326;2022-07-17T10:40:23;4.70;;;2.45;;
44989;SDS011;30723;51.206;3.326;2022-07-17T10:45:28;8.65;;;2.70;;
44989;SDS011;30723;51.206;3.326;2022-07-17T10:48:07;6.35;;;1.98;;
44989;SDS011;30723;51.206;3.326;2022-07-17T10:50:40;7.15;;;2.50;;
44989;SDS011;30723;51.206;3.326;2022-07-17T10:55:37;4.55;;;2.33;;
44989;SDS011;30723;51.206;3.326;2022-07-17T10:58:13;6.10;;;2.67;;
44989;SDS011;30723;51.206;3.326;2022-07-17T11:08:41;6.18;;;3.65;;
44989;SDS011;30723;51.206;3.326;2022-07-17T11:11:12;7.25;;;4.00;;
44989;SDS011;30723;51.206;3.326;2022-07-17T11:13:39;7.53;;;5.20;;
44989;SDS011;30723;51.206;3.326;2022-07-17T11:16:06;8.10;;;5.00;;
44989;SDS011;30723;51.206;3.326;2022-07-17T11:18:33;8.40;;;4.35;;
44989;SDS011;30723;51.206;3.326;2022-07-17T11:21:01;8.38;;;4.07;;
44989;SDS011;30723;51.206;3.326;2022-07-17T11:23:31;9.25;;;4.22;;
44989;SDS011;30723;51.206;3.326;2022-07-17T11:33:59;8.43;;;4.35;;
44989;SDS011;30723;51.206;3.326;2022-07-17T11:36:41;7.95;;;4.15;;
44989;SDS011;30723;51.206;3.326;2022-07-17T11:39:13;7.35;;;3.38;;
44989;SDS011;30723;51.206;3.326;2022-07-17T11:41:44;6.78;;;4.18;;
44989;SDS011;30723;51.206;3.326;2022-07-17T11:44:23;9.35;;;4.07;;
44989;SDS011;30723;51.206;3.326;2022-07-17T11:46:49;6.55;;;3.38;;
44989;SDS011;30723;51.206;3.326;2022-07-17T11:49:23;5.93;;;3.35;;
44989;SDS011;30723;51.206;3.326;2022-07-17T11:52:06;7.07;;;3.88;;
44989;SDS011;30723;51.206;3.326;2022-07-17T11:54:44;5.45;;;3.47;;
44989;SDS011;30723;51.206;3.326;2022-07-17T11:57:16;5.38;;;3.55;;
44989;SDS011;30723;51.206;3.326;2022-07-17T11:59:43;7.90;;;4.10;;
44989;SDS011;30723;51.206;3.326;2022-07-17T12:02:13;14.45;;;3.97;;
44989;SDS011;30723;51.206;3.326;2022-07-17T12:04:53;9.55;;;4.13;;
44989;SDS011;30723;51.206;3.326;2022-07-17T12:07:24;6.70;;;3.58;;
44989;SDS011;30723;51.206;3.326;2022-07-17T12:10:14;6.32;;;2.80;;
44989;SDS011;30723;51.206;3.326;2022-07-17T12:12:55;7.13;;;2.83;;
44989;SDS011;30723;51.206;3.326;2022-07-17T12:18:25;4.72;;;2.88;;
44989;SDS011;30723;51.206;3.326;2022-07-17T12:23:39;3.90;;;2.80;;
44989;SDS011;30723;51.206;3.326;2022-07-17T12:26:09;6.45;;;2.95;;
44989;SDS011;30723;51.206;3.326;2022-07-17T12:28:52;4.65;;;2.80;;
44989;SDS011;30723;51.206;3.326;2022-07-17T12:31:37;5.28;;;2.97;;
44989;SDS011;30723;51.206;3.326;2022-07-17T12:34:03;5.68;;;3.00;;
44989;SDS011;30723;51.206;3.326;2022-07-17T12:36:29;7.72;;;3.00;;
44989;SDS011;30723;51.206;3.326;2022-07-17T12:38:55;8.48;;;2.90;;
44989;SDS011;30723;51.206;3.326;2022-07-17T12:41:40;3.67;;;2.60;;
44989;SDS011;30723;51.206;3.326;2022-07-17T12:44:27;7.20;;;2.88;;
44989;SDS011;30723;51.206;3.326;2022-07-17T12:47:12;5.15;;;2.70;;
44989;SDS011;30723;51.206;3.326;2022-07-17T12:49:58;7.13;;;2.83;;
44989;SDS011;30723;51.206;3.326;2022-07-17T12:52:24;10.52;;;3.25;;
44989;SDS011;30723;51.206;3.326;2022-07-17T12:55:09;3.97;;;2.63;;
44989;SDS011;30723;51.206;3.326;2022-07-17T12:57:55;5.65;;;3.08;;
44989;SDS011;30723;51.206;3.326;2022-07-17T13:00:41;6.40;;;2.80;;
44989;SDS011;30723;51.206;3.326;2022-07-17T13:03:27;3.65;;;2.50;;
44989;SDS011;30723;51.206;3.326;2022-07-17T13:06:13;8.70;;;3.45;;
44989;SDS011;30723;51.206;3.326;2022-07-17T13:08:59;4.03;;;3.10;;
44989;SDS011;30723;51.206;3.326;2022-07-17T13:11:44;7.45;;;3.22;;
44989;SDS011;30723;51.206;3.326;2022-07-17T13:14:30;4.10;;;3.00;;
44989;SDS011;30723;51.206;3.326;2022-07-17T13:17:16;4.55;;;3.05;;
44989;SDS011;30723;51.206;3.326;2022-07-17T13:20:03;4.13;;;3.17;;
44989;SDS011;30723;51.206;3.326;2022-07-17T13:22:30;9.93;;;3.10;;
44989;SDS011;30723;51.206;3.326;2022-07-17T13:24:57;5.68;;;3.28;;
44989;SDS011;30723;51.206;3.326;2022-07-17T13:27:24;7.43;;;3.45;;
44989;SDS011;30723;51.206;3.326;2022-07-17T13:29:51;3.92;;;3.10;;
44989;SDS011;30723;51.206;3.326;2022-07-17T13:32:18;6.60;;;3.00;;
44989;SDS011;30723;51.206;3.326;2022-07-17T13:34:44;7.72;;;3.25;;
44989;SDS011;30723;51.206;3.326;2022-07-17T13:37:10;6.13;;;3.20;;
44989;SDS011;30723;51.206;3.326;2022-07-17T13:39:37;7.05;;;2.70;;
44989;SDS011;30723;51.206;3.326;2022-07-17T13:42:03;3.05;;;2.53;;
44989;SDS011;30723;51.206;3.326;2022-07-17T13:44:30;4.85;;;3.40;;
44989;SDS011;30723;51.206;3.326;2022-07-17T13:46:57;4.30;;;3.17;;
44989;SDS011;30723;51.206;3.326;2022-07-17T13:49:24;6.43;;;2.78;;
44989;SDS011;30723;51.206;3.326;2022-07-17T13:51:51;5.30;;;2.83;;
44989;SDS011;30723;51.206;3.326;2022-07-17T13:54:18;4.57;;;2.90;;
44989;SDS011;30723;51.206;3.326;2022-07-17T13:56:44;4.07;;;2.70;;
44989;SDS011;30723;51.206;3.326;2022-07-17T13:59:11;6.68;;;2.90;;
44989;SDS011;30723;51.206;3.326;2022-07-17T14:01:38;4.75;;;2.53;;
44989;SDS011;30723;51.206;3.326;2022-07-17T14:04:04;4.28;;;2.65;;
44989;SDS011;30723;51.206;3.326;2022-07-17T14:06:31;4.88;;;2.60;;
44989;SDS011;30723;51.206;3.326;2022-07-17T14:08:58;6.45;;;2.70;;
44989;SDS011;30723;51.206;3.326;2022-07-17T14:11:24;4.20;;;2.80;;
44989;SDS011;30723;51.206;3.326;2022-07-17T14:13:51;6.40;;;2.65;;
44989;SDS011;30723;51.206;3.326;2022-07-17T14:16:17;3.03;;;2.22;;
44989;SDS011;30723;51.206;3.326;2022-07-17T14:18:44;3.55;;;2.80;;
44989;SDS011;30723;51.206;3.326;2022-07-17T14:21:25;6.07;;;3.03;;
44989;SDS011;30723;51.206;3.326;2022-07-17T14:23:57;5.30;;;2.60;;
44989;SDS011;30723;51.206;3.326;2022-07-17T14:26:24;6.40;;;2.70;;
44989;SDS011;30723;51.206;3.326;2022-07-17T14:28:50;5.68;;;2.90;;
44989;SDS011;30723;51.206;3.326;2022-07-17T14:31:17;4.85;;;3.00;;
44989;SDS011;30723;51.206;3.326;2022-07-17T14:33:45;4.75;;;3.00;;
44989;SDS011;30723;51.206;3.326;2022-07-17T14:36:12;3.92;;;2.80;;
44989;SDS011;30723;51.206;3.326;2022-07-17T14:38:39;2.92;;;2.60;;
44989;SDS011;30723;51.206;3.326;2022-07-17T14:41:05;5.22;;;2.90;;
44989;SDS011;30723;51.206;3.326;2022-07-17T14:43:32;3.95;;;2.80;;
44989;SDS011;30723;51.206;3.326;2022-07-17T14:45:59;6.63;;;3.25;;
44989;SDS011;30723;51.206;3.326;2022-07-17T14:48:25;5.03;;;2.70;;
44989;SDS011;30723;51.206;3.326;2022-07-17T14:50:52;4.55;;;2.58;;
44989;SDS011;30723;51.206;3.326;2022-07-17T14:53:19;6.93;;;2.78;;
44989;SDS011;30723;51.206;3.326;2022-07-17T14:55:45;5.25;;;2.83;;
44989;SDS011;30723;51.206;3.326;2022-07-17T14:58:12;3.22;;;2.70;;
44989;SDS011;30723;51.206;3.326;2022-07-17T15:00:39;3.88;;;2.60;;
44989;SDS011;30723;51.206;3.326;2022-07-17T15:03:06;5.35;;;3.13;;
44989;SDS011;30723;51.206;3.326;2022-07-17T15:05:33;3.72;;;3.13;;
44989;SDS011;30723;51.206;3.326;2022-07-17T15:08:00;6.88;;;3.50;;
44989;SDS011;30723;51.206;3.326;2022-07-17T15:10:27;6.50;;;3.17;;
44989;SDS011;30723;51.206;3.326;2022-07-17T15:12:54;6.47;;;3.38;;
44989;SDS011;30723;51.206;3.326;2022-07-17T15:15:20;3.78;;;3.15;;
44989;SDS011;30723;51.206;3.326;2022-07-17T15:17:47;8.63;;;3.60;;
44989;SDS011;30723;51.206;3.326;2022-07-17T15:20:14;5.10;;;3.47;;
44989;SDS011;30723;51.206;3.326;2022-07-17T15:22:40;3.88;;;3.40;;
44989;SDS011;30723;51.206;3.326;2022-07-17T15:25:07;5.82;;;3.60;;
44989;SDS011;30723;51.206;3.326;2022-07-17T15:27:34;4.07;;;3.00;;
44989;SDS011;30723;51.206;3.326;2022-07-17T15:30:00;3.63;;;3.28;;
44989;SDS011;30723;51.206;3.326;2022-07-17T15:32:28;4.15;;;3.25;;
44989;SDS011;30723;51.206;3.326;2022-07-17T15:34:55;7.97;;;3.50;;
44989;SDS011;30723;51.206;3.326;2022-07-17T15:37:20;4.97;;;3.60;;
44989;SDS011;30723;51.206;3.326;2022-07-17T15:39:50;5.70;;;3.35;;